sensor_id;sensor_type;location;lat;lon;timestamp;P1;durP1;ratioP1;P2;durP2;ratioP2
5195;SDS011;2617;51.006;12.436;2023-01-24T00:03:02;81.53;;;25.70;;
5195;SDS011;2617;51.006;12.436;2023-01-24T00:08:04;94.60;;;25.70;;
5195;SDS011;2617;51.006;12.436;2023-01-24T00:13:11;96.43;;;26.23;;
5195;SDS011;2617;51.006;12.436;2023-01-24T00:18:14;81.43;;;26.30;;
5195;SDS011;2617;51.006;12.436;2023-01-24T00:23:16;91.93;;;24.17;;
5195;SDS011;2617;51.006;12.436;2023-01-24T00:28:19;81.80;;;25.30;;
5195;SDS011;2617;51.006;12.436;2023-01-24T00:33:22;73.62;;;23.60;;
5195;SDS011;2617;51.006;12.436;2023-01-24T00:38:25;83.53;;;23.00;;
5195;SDS011;2617;51.006;12.436;2023-01-24T00:43:27;106.73;;;24.47;;
5195;SDS011;2617;51.006;12.436;2023-01-24T00:48:29;72.45;;;23.12;;
5195;SDS011;2617;51.006;12.436;2023-01-24T00:53:33;92.00;;;26.03;;
5195;SDS011;2617;51.006;12.436;2023-01-24T00:58:35;97.40;;;24.83;;
5195;SDS011;2617;51.006;12.436;2023-01-24T01:03:39;88.70;;;22.84;;
5195;SDS011;2617;51.006;12.436;2023-01-24T01:08:42;72.30;;;23.17;;
5195;SDS011;2617;51.006;12.436;2023-01-24T01:13:45;80.93;;;21.53;;
5195;SDS011;2617;51.006;12.436;2023-01-24T01:18:50;85.27;;;24.30;;
5195;SDS011;2617;51.006;12.436;2023-01-24T01:23:52;83.90;;;26.63;;
5195;SDS011;2617;51.006;12.436;2023-01-24T01:28:55;74.93;;;23.20;;
5195;SDS011;2617;51.006;12.436;2023-01-24T01:33:57;84.80;;;25.12;;
5195;SDS011;2617;51.006;12.436;2023-01-24T01:39:00;92.97;;;25.50;;
5195;SDS011;2617;51.006;12.436;2023-01-24T01:49:32;84.13;;;24.63;;
5195;SDS011;2617;51.006;12.436;2023-01-24T01:54:35;70.13;;;22.73;;
5195;SDS011;2617;51.006;12.436;2023-01-24T01:59:38;78.87;;;24.33;;
5195;SDS011;2617;51.006;12.436;2023-01-24T02:04:44;68.13;;;21.97;;
5195;SDS011;2617;51.006;12.436;2023-01-24T02:09:45;74.62;;;23.38;;
5195;SDS011;2617;51.006;12.436;2023-01-24T02:14:50;76.07;;;24.27;;
5195;SDS011;2617;51.006;12.436;2023-01-24T02:20:05;71.43;;;23.23;;
5195;SDS011;2617;51.006;12.436;2023-01-24T02:25:14;64.00;;;20.33;;
5195;SDS011;2617;51.006;12.436;2023-01-24T02:30:30;80.37;;;21.60;;
5195;SDS011;2617;51.006;12.436;2023-01-24T02:35:32;88.50;;;22.27;;
5195;SDS011;2617;51.006;12.436;2023-01-24T02:40:35;72.53;;;23.00;;
5195;SDS011;2617;51.006;12.436;2023-01-24T02:45:37;81.33;;;22.90;;
5195;SDS011;2617;51.006;12.436;2023-01-24T02:50:40;92.40;;;25.02;;
5195;SDS011;2617;51.006;12.436;2023-01-24T02:55:48;81.63;;;23.40;;
5195;SDS011;2617;51.006;12.436;2023-01-24T03:00:56;78.40;;;23.33;;
5195;SDS011;2617;51.006;12.436;2023-01-24T03:05:58;78.50;;;22.83;;
5195;SDS011;2617;51.006;12.436;2023-01-24T03:11:01;84.67;;;23.73;;
5195;SDS011;2617;51.006;12.436;2023-01-24T03:16:03;81.95;;;23.42;;
5195;SDS011;2617;51.006;12.436;2023-01-24T03:21:11;76.77;;;22.90;;
5195;SDS011;2617;51.006;12.436;2023-01-24T03:26:20;86.90;;;24.80;;
5195;SDS011;2617;51.006;12.436;2023-01-24T03:31:28;65.80;;;20.52;;
5195;SDS011;2617;51.006;12.436;2023-01-24T03:36:36;73.30;;;23.63;;
5195;SDS011;2617;51.006;12.436;2023-01-24T03:41:38;75.37;;;23.93;;
5195;SDS011;2617;51.006;12.436;2023-01-24T03:46:42;71.95;;;21.98;;
5195;SDS011;2617;51.006;12.436;2023-01-24T03:51:44;78.93;;;24.50;;
5195;SDS011;2617;51.006;12.436;2023-01-24T03:56:52;74.63;;;22.00;;
5195;SDS011;2617;51.006;12.436;2023-01-24T04:01:55;72.43;;;21.10;;
5195;SDS011;2617;51.006;12.436;2023-01-24T04:06:57;76.43;;;22.27;;
5195;SDS011;2617;51.006;12.436;2023-01-24T04:11:59;67.67;;;22.13;;
5195;SDS011;2617;51.006;12.436;2023-01-24T04:17:02;75.23;;;22.63;;
5195;SDS011;2617;51.006;12.436;2023-01-24T04:22:05;69.25;;;20.50;;
5195;SDS011;2617;51.006;12.436;2023-01-24T04:27:07;71.43;;;22.77;;
5195;SDS011;2617;51.006;12.436;2023-01-24T04:32:10;66.43;;;22.83;;
5195;SDS011;2617;51.006;12.436;2023-01-24T04:37:13;67.20;;;21.53;;
5195;SDS011;2617;51.006;12.436;2023-01-24T04:42:15;64.60;;;20.80;;
5195;SDS011;2617;51.006;12.436;2023-01-24T04:47:17;86.73;;;22.57;;
5195;SDS011;2617;51.006;12.436;2023-01-24T04:52:20;80.80;;;21.60;;
5195;SDS011;2617;51.006;12.436;2023-01-24T04:57:22;74.30;;;22.70;;
5195;SDS011;2617;51.006;12.436;2023-01-24T05:02:25;76.50;;;24.00;;
5195;SDS011;2617;51.006;12.436;2023-01-24T05:07:27;61.90;;;21.50;;
5195;SDS011;2617;51.006;12.436;2023-01-24T05:12:30;71.80;;;21.93;;
5195;SDS011;2617;51.006;12.436;2023-01-24T05:17:32;70.57;;;23.87;;
5195;SDS011;2617;51.006;12.436;2023-01-24T05:22:34;70.07;;;23.10;;
5195;SDS011;2617;51.006;12.436;2023-01-24T05:27:37;72.70;;;21.03;;
5195;SDS011;2617;51.006;12.436;2023-01-24T05:32:39;78.12;;;21.40;;
5195;SDS011;2617;51.006;12.436;2023-01-24T05:37:43;67.37;;;20.58;;
5195;SDS011;2617;51.006;12.436;2023-01-24T05:42:45;74.33;;;26.10;;
5195;SDS011;2617;51.006;12.436;2023-01-24T05:47:47;58.55;;;20.48;;
5195;SDS011;2617;51.006;12.436;2023-01-24T05:52:50;82.43;;;22.40;;
5195;SDS011;2617;51.006;12.436;2023-01-24T05:57:53;72.87;;;20.90;;
5195;SDS011;2617;51.006;12.436;2023-01-24T06:03:00;71.30;;;21.20;;
5195;SDS011;2617;51.006;12.436;2023-01-24T06:07:58;87.70;;;22.13;;
5195;SDS011;2617;51.006;12.436;2023-01-24T06:13:00;67.27;;;20.57;;
5195;SDS011;2617;51.006;12.436;2023-01-24T06:18:03;79.60;;;22.47;;
5195;SDS011;2617;51.006;12.436;2023-01-24T06:23:06;80.27;;;22.37;;
5195;SDS011;2617;51.006;12.436;2023-01-24T06:28:09;99.23;;;25.53;;
5195;SDS011;2617;51.006;12.436;2023-01-24T06:33:23;85.84;;;23.38;;
5195;SDS011;2617;51.006;12.436;2023-01-24T06:38:38;79.70;;;23.50;;
5195;SDS011;2617;51.006;12.436;2023-01-24T06:43:40;86.55;;;24.33;;
5195;SDS011;2617;51.006;12.436;2023-01-24T06:48:44;77.55;;;23.70;;
5195;SDS011;2617;51.006;12.436;2023-01-24T06:53:46;86.07;;;25.50;;
5195;SDS011;2617;51.006;12.436;2023-01-24T06:58:48;66.87;;;21.15;;
5195;SDS011;2617;51.006;12.436;2023-01-24T07:03:51;86.30;;;22.87;;
5195;SDS011;2617;51.006;12.436;2023-01-24T07:08:54;82.40;;;23.60;;
5195;SDS011;2617;51.006;12.436;2023-01-24T07:13:56;96.87;;;23.60;;
5195;SDS011;2617;51.006;12.436;2023-01-24T07:19:00;85.85;;;23.38;;
5195;SDS011;2617;51.006;12.436;2023-01-24T07:24:02;76.20;;;22.83;;
5195;SDS011;2617;51.006;12.436;2023-01-24T07:29:06;74.97;;;23.40;;
5195;SDS011;2617;51.006;12.436;2023-01-24T07:34:08;79.43;;;19.67;;
5195;SDS011;2617;51.006;12.436;2023-01-24T07:39:11;79.17;;;23.10;;
5195;SDS011;2617;51.006;12.436;2023-01-24T07:44:14;74.78;;;21.65;;
5195;SDS011;2617;51.006;12.436;2023-01-24T07:49:17;65.10;;;21.63;;
5195;SDS011;2617;51.006;12.436;2023-01-24T07:54:20;75.18;;;22.96;;
5195;SDS011;2617;51.006;12.436;2023-01-24T07:59:22;76.60;;;22.95;;
5195;SDS011;2617;51.006;12.436;2023-01-24T08:04:25;74.77;;;23.00;;
5195;SDS011;2617;51.006;12.436;2023-01-24T08:09:27;83.37;;;25.50;;
5195;SDS011;2617;51.006;12.436;2023-01-24T08:14:30;60.93;;;20.37;;
5195;SDS011;2617;51.006;12.436;2023-01-24T08:19:33;73.17;;;22.37;;
5195;SDS011;2617;51.006;12.436;2023-01-24T08:24:35;74.97;;;24.13;;
5195;SDS011;2617;51.006;12.436;2023-01-24T08:29:37;61.90;;;21.30;;
5195;SDS011;2617;51.006;12.436;2023-01-24T08:34:41;67.03;;;23.60;;
5195;SDS011;2617;51.006;12.436;2023-01-24T08:39:43;77.53;;;22.50;;
5195;SDS011;2617;51.006;12.436;2023-01-24T08:44:45;62.23;;;19.93;;
5195;SDS011;2617;51.006;12.436;2023-01-24T08:49:48;69.40;;;20.50;;
5195;SDS011;2617;51.006;12.436;2023-01-24T08:54:50;65.20;;;20.37;;
5195;SDS011;2617;51.006;12.436;2023-01-24T08:59:53;66.62;;;19.50;;
5195;SDS011;2617;51.006;12.436;2023-01-24T09:04:55;62.10;;;21.17;;
5195;SDS011;2617;51.006;12.436;2023-01-24T09:09:58;66.80;;;23.40;;
5195;SDS011;2617;51.006;12.436;2023-01-24T09:15:00;71.67;;;22.13;;
5195;SDS011;2617;51.006;12.436;2023-01-24T09:20:02;68.97;;;23.17;;
5195;SDS011;2617;51.006;12.436;2023-01-24T09:25:06;65.33;;;22.00;;
5195;SDS011;2617;51.006;12.436;2023-01-24T09:30:10;71.97;;;22.95;;
5195;SDS011;2617;51.006;12.436;2023-01-24T09:35:13;62.43;;;20.43;;
5195;SDS011;2617;51.006;12.436;2023-01-24T09:40:21;74.82;;;22.35;;
5195;SDS011;2617;51.006;12.436;2023-01-24T09:45:33;73.23;;;23.97;;
5195;SDS011;2617;51.006;12.436;2023-01-24T09:50:41;58.30;;;23.27;;
5195;SDS011;2617;51.006;12.436;2023-01-24T09:55:54;70.27;;;20.30;;
5195;SDS011;2617;51.006;12.436;2023-01-24T10:00:59;79.30;;;23.33;;
5195;SDS011;2617;51.006;12.436;2023-01-24T10:06:07;75.83;;;23.73;;
5195;SDS011;2617;51.006;12.436;2023-01-24T10:16:40;76.83;;;25.47;;
5195;SDS011;2617;51.006;12.436;2023-01-24T10:27:28;75.55;;;21.75;;
5195;SDS011;2617;51.006;12.436;2023-01-24T10:32:31;69.13;;;22.20;;
5195;SDS011;2617;51.006;12.436;2023-01-24T10:37:33;70.90;;;21.63;;
5195;SDS011;2617;51.006;12.436;2023-01-24T10:42:36;76.27;;;24.37;;
5195;SDS011;2617;51.006;12.436;2023-01-24T10:47:45;78.33;;;23.80;;
5195;SDS011;2617;51.006;12.436;2023-01-24T10:52:56;66.13;;;23.70;;
5195;SDS011;2617;51.006;12.436;2023-01-24T10:57:59;63.60;;;21.97;;
5195;SDS011;2617;51.006;12.436;2023-01-24T11:03:03;64.97;;;22.20;;
5195;SDS011;2617;51.006;12.436;2023-01-24T11:08:05;71.27;;;23.17;;
5195;SDS011;2617;51.006;12.436;2023-01-24T11:18:34;78.47;;;22.95;;
5195;SDS011;2617;51.006;12.436;2023-01-24T11:23:37;91.63;;;24.17;;
5195;SDS011;2617;51.006;12.436;2023-01-24T11:28:40;69.40;;;20.00;;
5195;SDS011;2617;51.006;12.436;2023-01-24T11:33:50;75.70;;;22.27;;
5195;SDS011;2617;51.006;12.436;2023-01-24T11:39:10;89.70;;;22.30;;
5195;SDS011;2617;51.006;12.436;2023-01-24T11:49:52;77.60;;;23.70;;
5195;SDS011;2617;51.006;12.436;2023-01-24T12:00:30;63.83;;;20.08;;
5195;SDS011;2617;51.006;12.436;2023-01-24T12:05:40;75.78;;;23.23;;
5195;SDS011;2617;51.006;12.436;2023-01-24T12:11:05;71.87;;;23.03;;
5195;SDS011;2617;51.006;12.436;2023-01-24T12:21:44;98.80;;;27.17;;
5195;SDS011;2617;51.006;12.436;2023-01-24T12:26:50;94.68;;;26.04;;
5195;SDS011;2617;51.006;12.436;2023-01-24T12:31:56;85.10;;;24.23;;
5195;SDS011;2617;51.006;12.436;2023-01-24T12:43:12;81.10;;;23.33;;
5195;SDS011;2617;51.006;12.436;2023-01-24T12:48:16;79.37;;;25.97;;
5195;SDS011;2617;51.006;12.436;2023-01-24T12:53:23;79.67;;;22.70;;
5195;SDS011;2617;51.006;12.436;2023-01-24T12:58:41;72.47;;;22.27;;
5195;SDS011;2617;51.006;12.436;2023-01-24T13:03:49;97.20;;;26.60;;
5195;SDS011;2617;51.006;12.436;2023-01-24T13:09:14;93.57;;;23.90;;
5195;SDS011;2617;51.006;12.436;2023-01-24T13:14:21;80.57;;;26.77;;
5195;SDS011;2617;51.006;12.436;2023-01-24T13:19:39;86.10;;;23.90;;
5195;SDS011;2617;51.006;12.436;2023-01-24T13:24:59;91.20;;;24.65;;
5195;SDS011;2617;51.006;12.436;2023-01-24T13:30:18;83.33;;;25.40;;
5195;SDS011;2617;51.006;12.436;2023-01-24T13:35:34;93.55;;;23.87;;
5195;SDS011;2617;51.006;12.436;2023-01-24T13:40:38;73.70;;;19.77;;
5195;SDS011;2617;51.006;12.436;2023-01-24T13:45:40;73.07;;;23.37;;
5195;SDS011;2617;51.006;12.436;2023-01-24T13:50:43;71.90;;;21.60;;
5195;SDS011;2617;51.006;12.436;2023-01-24T13:55:59;90.37;;;22.40;;
5195;SDS011;2617;51.006;12.436;2023-01-24T14:01:07;74.83;;;21.03;;
5195;SDS011;2617;51.006;12.436;2023-01-24T14:06:11;80.83;;;23.87;;
5195;SDS011;2617;51.006;12.436;2023-01-24T14:11:17;64.70;;;20.80;;
5195;SDS011;2617;51.006;12.436;2023-01-24T14:21:58;53.87;;;17.50;;
5195;SDS011;2617;51.006;12.436;2023-01-24T14:27:15;74.50;;;20.65;;
5195;SDS011;2617;51.006;12.436;2023-01-24T14:32:25;70.40;;;21.05;;
5195;SDS011;2617;51.006;12.436;2023-01-24T14:37:30;87.73;;;23.07;;
5195;SDS011;2617;51.006;12.436;2023-01-24T14:42:33;72.50;;;19.83;;
5195;SDS011;2617;51.006;12.436;2023-01-24T14:47:36;68.72;;;21.25;;
5195;SDS011;2617;51.006;12.436;2023-01-24T14:52:38;81.97;;;21.63;;
5195;SDS011;2617;51.006;12.436;2023-01-24T14:57:41;69.13;;;21.87;;
5195;SDS011;2617;51.006;12.436;2023-01-24T15:07:53;59.47;;;20.30;;
5195;SDS011;2617;51.006;12.436;2023-01-24T15:12:56;66.60;;;20.70;;
5195;SDS011;2617;51.006;12.436;2023-01-24T15:18:00;78.07;;;21.67;;
5195;SDS011;2617;51.006;12.436;2023-01-24T15:23:03;80.67;;;20.63;;
5195;SDS011;2617;51.006;12.436;2023-01-24T15:28:16;79.83;;;20.17;;
5195;SDS011;2617;51.006;12.436;2023-01-24T15:33:16;70.93;;;20.10;;
5195;SDS011;2617;51.006;12.436;2023-01-24T15:38:21;80.90;;;21.37;;
5195;SDS011;2617;51.006;12.436;2023-01-24T15:43:27;86.90;;;23.45;;
5195;SDS011;2617;51.006;12.436;2023-01-24T15:48:38;81.27;;;22.73;;
5195;SDS011;2617;51.006;12.436;2023-01-24T15:53:42;81.90;;;22.08;;
5195;SDS011;2617;51.006;12.436;2023-01-24T15:58:45;74.07;;;22.87;;
5195;SDS011;2617;51.006;12.436;2023-01-24T16:03:47;68.40;;;20.47;;
5195;SDS011;2617;51.006;12.436;2023-01-24T16:08:50;68.63;;;21.33;;
5195;SDS011;2617;51.006;12.436;2023-01-24T16:13:53;87.30;;;23.23;;
5195;SDS011;2617;51.006;12.436;2023-01-24T16:18:56;66.18;;;19.90;;
5195;SDS011;2617;51.006;12.436;2023-01-24T16:23:58;69.03;;;24.60;;
5195;SDS011;2617;51.006;12.436;2023-01-24T16:29:01;68.07;;;22.80;;
5195;SDS011;2617;51.006;12.436;2023-01-24T16:34:03;79.23;;;24.23;;
5195;SDS011;2617;51.006;12.436;2023-01-24T16:39:07;57.37;;;20.33;;
5195;SDS011;2617;51.006;12.436;2023-01-24T16:44:09;65.40;;;23.95;;
5195;SDS011;2617;51.006;12.436;2023-01-24T16:49:11;75.83;;;22.60;;
5195;SDS011;2617;51.006;12.436;2023-01-24T16:54:14;62.33;;;20.70;;
5195;SDS011;2617;51.006;12.436;2023-01-24T16:59:16;75.33;;;18.83;;
5195;SDS011;2617;51.006;12.436;2023-01-24T17:04:19;57.83;;;20.50;;
5195;SDS011;2617;51.006;12.436;2023-01-24T17:09:22;54.67;;;17.50;;
5195;SDS011;2617;51.006;12.436;2023-01-24T17:14:24;68.93;;;20.37;;
5195;SDS011;2617;51.006;12.436;2023-01-24T17:19:27;64.63;;;19.57;;
5195;SDS011;2617;51.006;12.436;2023-01-24T17:24:29;50.50;;;18.03;;
5195;SDS011;2617;51.006;12.436;2023-01-24T17:29:32;66.13;;;19.83;;
5195;SDS011;2617;51.006;12.436;2023-01-24T17:34:35;45.90;;;16.10;;
5195;SDS011;2617;51.006;12.436;2023-01-24T17:39:37;59.07;;;18.67;;
5195;SDS011;2617;51.006;12.436;2023-01-24T17:44:40;56.13;;;17.42;;
5195;SDS011;2617;51.006;12.436;2023-01-24T17:49:43;55.90;;;17.30;;
5195;SDS011;2617;51.006;12.436;2023-01-24T17:54:46;52.15;;;16.80;;
5195;SDS011;2617;51.006;12.436;2023-01-24T17:59:48;58.03;;;16.35;;
5195;SDS011;2617;51.006;12.436;2023-01-24T18:04:51;49.47;;;16.00;;
5195;SDS011;2617;51.006;12.436;2023-01-24T18:09:53;53.60;;;15.40;;
5195;SDS011;2617;51.006;12.436;2023-01-24T18:14:56;39.60;;;15.10;;
5195;SDS011;2617;51.006;12.436;2023-01-24T18:19:58;45.77;;;16.37;;
5195;SDS011;2617;51.006;12.436;2023-01-24T18:25:00;32.80;;;14.43;;
5195;SDS011;2617;51.006;12.436;2023-01-24T18:30:03;40.93;;;14.03;;
5195;SDS011;2617;51.006;12.436;2023-01-24T18:35:06;29.40;;;11.10;;
5195;SDS011;2617;51.006;12.436;2023-01-24T18:40:10;30.07;;;11.97;;
5195;SDS011;2617;51.006;12.436;2023-01-24T18:45:13;32.80;;;14.40;;
5195;SDS011;2617;51.006;12.436;2023-01-24T18:50:15;32.20;;;12.40;;
5195;SDS011;2617;51.006;12.436;2023-01-24T18:55:18;206.52;;;87.82;;
5195;SDS011;2617;51.006;12.436;2023-01-24T19:00:21;32.30;;;12.90;;
5195;SDS011;2617;51.006;12.436;2023-01-24T19:05:25;29.30;;;12.00;;
5195;SDS011;2617;51.006;12.436;2023-01-24T19:10:27;27.70;;;10.10;;
5195;SDS011;2617;51.006;12.436;2023-01-24T19:15:29;31.00;;;12.57;;
5195;SDS011;2617;51.006;12.436;2023-01-24T19:20:33;35.47;;;13.90;;
5195;SDS011;2617;51.006;12.436;2023-01-24T19:25:36;30.27;;;15.70;;
5195;SDS011;2617;51.006;12.436;2023-01-24T19:30:38;38.53;;;13.90;;
5195;SDS011;2617;51.006;12.436;2023-01-24T19:35:41;27.83;;;10.90;;
5195;SDS011;2617;51.006;12.436;2023-01-24T19:40:43;34.37;;;12.97;;
5195;SDS011;2617;51.006;12.436;2023-01-24T19:45:45;65.13;;;33.07;;
5195;SDS011;2617;51.006;12.436;2023-01-24T19:50:48;39.47;;;14.20;;
5195;SDS011;2617;51.006;12.436;2023-01-24T19:55:50;36.27;;;14.20;;
5195;SDS011;2617;51.006;12.436;2023-01-24T20:00:53;30.53;;;13.13;;
5195;SDS011;2617;51.006;12.436;2023-01-24T20:05:56;25.60;;;12.60;;
5195;SDS011;2617;51.006;12.436;2023-01-24T20:10:59;25.33;;;11.23;;
5195;SDS011;2617;51.006;12.436;2023-01-24T20:16:04;24.00;;;11.60;;
5195;SDS011;2617;51.006;12.436;2023-01-24T20:21:09;31.70;;;12.57;;
5195;SDS011;2617;51.006;12.436;2023-01-24T20:26:12;35.13;;;12.30;;
5195;SDS011;2617;51.006;12.436;2023-01-24T20:31:16;34.27;;;12.33;;
5195;SDS011;2617;51.006;12.436;2023-01-24T20:36:19;32.40;;;14.80;;
5195;SDS011;2617;51.006;12.436;2023-01-24T20:41:22;26.80;;;11.90;;
5195;SDS011;2617;51.006;12.436;2023-01-24T20:46:26;30.03;;;12.47;;
5195;SDS011;2617;51.006;12.436;2023-01-24T20:51:29;24.93;;;11.20;;
5195;SDS011;2617;51.006;12.436;2023-01-24T20:56:33;31.20;;;11.93;;
5195;SDS011;2617;51.006;12.436;2023-01-24T21:01:34;28.80;;;12.10;;
5195;SDS011;2617;51.006;12.436;2023-01-24T21:06:37;32.00;;;13.60;;
5195;SDS011;2617;51.006;12.436;2023-01-24T21:11:39;27.67;;;12.50;;
5195;SDS011;2617;51.006;12.436;2023-01-24T21:16:42;27.43;;;12.70;;
5195;SDS011;2617;51.006;12.436;2023-01-24T21:21:45;33.93;;;13.93;;
5195;SDS011;2617;51.006;12.436;2023-01-24T21:26:47;37.57;;;14.10;;
5195;SDS011;2617;51.006;12.436;2023-01-24T21:31:49;37.00;;;15.40;;
5195;SDS011;2617;51.006;12.436;2023-01-24T21:36:51;31.00;;;14.47;;
5195;SDS011;2617;51.006;12.436;2023-01-24T21:41:55;40.10;;;14.20;;
5195;SDS011;2617;51.006;12.436;2023-01-24T21:47:00;42.97;;;16.13;;
5195;SDS011;2617;51.006;12.436;2023-01-24T21:52:02;37.07;;;13.67;;
5195;SDS011;2617;51.006;12.436;2023-01-24T21:57:05;46.45;;;14.90;;
5195;SDS011;2617;51.006;12.436;2023-01-24T22:02:16;38.88;;;14.95;;
5195;SDS011;2617;51.006;12.436;2023-01-24T22:07:19;37.43;;;15.90;;
5195;SDS011;2617;51.006;12.436;2023-01-24T22:12:21;32.33;;;14.20;;
5195;SDS011;2617;51.006;12.436;2023-01-24T22:17:24;37.20;;;13.10;;
5195;SDS011;2617;51.006;12.436;2023-01-24T22:22:46;32.67;;;12.90;;
5195;SDS011;2617;51.006;12.436;2023-01-24T22:27:56;34.07;;;14.50;;
5195;SDS011;2617;51.006;12.436;2023-01-24T22:32:59;37.83;;;13.33;;
5195;SDS011;2617;51.006;12.436;2023-01-24T22:38:02;39.43;;;13.67;;
5195;SDS011;2617;51.006;12.436;2023-01-24T22:43:05;33.40;;;14.97;;
5195;SDS011;2617;51.006;12.436;2023-01-24T22:48:10;33.60;;;13.63;;
5195;SDS011;2617;51.006;12.436;2023-01-24T22:53:14;39.55;;;13.98;;
5195;SDS011;2617;51.006;12.436;2023-01-24T22:58:16;29.00;;;12.53;;
5195;SDS011;2617;51.006;12.436;2023-01-24T23:03:18;44.77;;;15.00;;
5195;SDS011;2617;51.006;12.436;2023-01-24T23:08:21;33.97;;;14.80;;
5195;SDS011;2617;51.006;12.436;2023-01-24T23:13:23;39.33;;;16.00;;
5195;SDS011;2617;51.006;12.436;2023-01-24T23:18:31;39.72;;;16.25;;
5195;SDS011;2617;51.006;12.436;2023-01-24T23:23:39;29.03;;;12.80;;
5195;SDS011;2617;51.006;12.436;2023-01-24T23:28:42;26.80;;;12.50;;
5195;SDS011;2617;51.006;12.436;2023-01-24T23:33:44;32.07;;;13.33;;
5195;SDS011;2617;51.006;12.436;2023-01-24T23:38:47;23.00;;;11.63;;
5195;SDS011;2617;51.006;12.436;2023-01-24T23:43:50;29.17;;;13.10;;
5195;SDS011;2617;51.006;12.436;2023-01-24T23:48:52;23.63;;;10.70;;
5195;SDS011;2617;51.006;12.436;2023-01-24T23:53:54;20.87;;;9.30;;
5195;SDS011;2617;51.006;12.436;2023-01-24T23:58:58;25.90;;;10.90;;
